Franklin Lakes, NJ (07417)

5:55 AM EST on November 23, 2014 (GMT -0500)
Dogwood | Change Station
CLOSE
Current Station
Personal Weather Station
Location: Oakland, NJ
Elevation: 490 ft
Nearby Weather Stations

Elev 490 ft 41.02 °N, 74.23 °W | Updated 6 seconds ago

Overcast
Overcast
39.2 °F
Feels Like 39 °F
N
0.0
Wind Variable Wind from ENE
Gusts 0.0 mph

Today
High -- | Low -- °F
--% Chance of Precip.
Yesterday
High -- | Low -- °F
Precip. -- in
6:53 AM 4:32 PM
New Moon, 1% visible
Pressure 30.20 in
Visibility 10.0 miles
Clouds Overcast 11000 ft
Windchill 39 °F
Dew Point 24 °F
Humidity 55%
Rainfall 0.00 in
Snow Depth Not available.
UV 1.4 out of 12
Pollen .10 out of 12
Air Quality Not available.
Flu Activity Not available.
METAR KCDW 230953Z AUTO 22004KT 10SM OVC110 05/M07 A3018 RMK AO2 SLP225 T00501067 TSNO

More Conditions Fewer Conditions

Pressure 30.20 in
Visibility 10.0 miles
Clouds Overcast 11000 ft
Windchill 39 °F
Dew Point 24 °F
Humidity 55%
Rainfall 0.00 in
Snow Depth Not available.
UV 1.4 out of 12
Pollen .10 out of 12
Air Quality Not available.
Flu Activity Not available.
METAR KCDW 230953Z AUTO 22004KT 10SM OVC110 05/M07 A3018 RMK AO2 SLP225 T00501067 TSNO

More Conditions Fewer Conditions

10-Day Weather Forecast

Almanac

Astronomy

Nov. 23, 2014 Rise Set
Actual Time
Civil Twilight
Nautical Twilight
Astronomical Twilight
Moon
Length of Visible Light
Length of Day
Tomorrow will be .
, % of the Moon is Illuminated

Today's Extremes

State Highs State Lows

Community

WunderPhotos

Upload Photos

1,773,033 photos uploaded!

WunderBlogs® & News

Nearby

Air Quality

  Air Quality AQ Index Pollutant
Not available.

Snow Depth

Station Depth Elevation

Earthquake Activity

City Distance Mag. Time & Date
Minimum magnitude displayed is 2.5.

Coastal Water Temperatures

Place Temperature

Nearby Weather Stations